CW1394 Sandy Pt. Shores WA US current weather conditions

sailwx.info

Wind from 066 at 7 knots gusting 11

Air temperature 8.3° C
Dewpoint 4.2° C

Last reported at 2019-Dec-05 21:04 UTC.
Time now 2019-Dec-05 21:49 UTC

Location: N 48°48' W 122°42'.
View on Google Maps.

See reports from other nearby stations

  
Tides and Currents Weather Stations Pressure Air Temp Water Temp Dewpoint Dewpoint Depression Visibility Wind Speed Wind Dir Waves Ship Positions
date/time (UTC)wind fromknots sea level pressurealtimeterstation pressurevisibilityair tempwater tempwave heightnotes
2019-Dec-05 21:04 066 7 gusting 11 8.3
2019-Dec-05 20:59 060 4 gusting 6 8.3
2019-Dec-05 20:54 052 6 gusting 11 8.3
2019-Dec-05 20:49 046 1 gusting 6 8.3
2019-Dec-05 20:44 070 4 gusting 6 8.3
2019-Dec-05 20:39 047 5 gusting 6 8.3
2019-Dec-05 20:34 039 5 gusting 14 8.3
2019-Dec-05 20:29 038 2 gusting 6 8.3
2019-Dec-05 20:24 058 4 gusting 8 8.3
2019-Dec-05 20:19 048 6 gusting 12 8.3
2019-Dec-05 20:14 071 4 gusting 6 8.3
2019-Dec-05 20:09 055 5 gusting 6 8.3
2019-Dec-05 20:04 071 1 gusting 6 8.3
2019-Dec-05 19:59 063 4 gusting 5 8.3
2019-Dec-05 19:54 046 2 gusting 5 8.3
2019-Dec-05 19:49 027 4 gusting 5 7.8
2019-Dec-05 19:44 034 7.8
2019-Dec-05 19:39 074 0 gusting 2 7.8
2019-Dec-05 19:34 074 0 gusting 4 7.8
2019-Dec-05 19:29 055 2 gusting 6 7.8
2019-Dec-05 19:24 080 2 gusting 6 7.8
2019-Dec-05 19:19 054 5 gusting 6 7.8
2019-Dec-05 19:14 058 1 gusting 5 7.8
2019-Dec-05 19:09 059 1 gusting 2 7.8
2019-Dec-05 19:04 022 2 gusting 4 7.8
2019-Dec-05 18:59 050 4 gusting 10 7.8
2019-Dec-05 18:54 062 5 gusting 13 7.2
2019-Dec-05 18:49 055 11 gusting 15 7.2
2019-Dec-05 18:44 055 11 gusting 13 7.2
2019-Dec-05 18:39 066 9 gusting 14 7.2
2019-Dec-05 18:34 057 12 gusting 17 7.2
2019-Dec-05 18:29 064 13 gusting 19 7.2
2019-Dec-05 18:24 057 11 gusting 17 7.2
2019-Dec-05 18:19 058 10 gusting 14 7.2
2019-Dec-05 18:14 059 7 gusting 14 7.2
2019-Dec-05 18:09 066 9 gusting 13 7.2
2019-Dec-05 18:04 065 5 gusting 12 6.7
2019-Dec-05 17:59 073 9 gusting 14 6.7
2019-Dec-05 17:54 065 10 gusting 13 6.7
2019-Dec-05 17:49 074 10 gusting 13 6.7
2019-Dec-05 17:44 073 5 gusting 12 6.7
2019-Dec-05 17:39 057 7 gusting 13 6.7
2019-Dec-05 17:34 068 6 gusting 14 6.7
2019-Dec-05 17:29 054 5 gusting 12 6.7
2019-Dec-05 17:24 043 4 gusting 7 6.7
2019-Dec-05 17:19 058 6 gusting 13 6.7
2019-Dec-05 17:14 060 2 gusting 6 6.1
2019-Dec-05 17:09 067 7 gusting 12 6.1
2019-Dec-05 17:04 032 1 gusting 10 6.1
2019-Dec-05 16:59 052 2 gusting 8 6.1
2019-Dec-05 16:54 085 2 gusting 17 6.1
2019-Dec-05 16:49 040 6 gusting 13 6.1
2019-Dec-05 16:44 071 6 gusting 10 6.1
2019-Dec-05 16:39 046 6 gusting 12 6.1
2019-Dec-05 16:34 058 8 gusting 12 6.1
2019-Dec-05 16:29 052 4 gusting 8 6.1
2019-Dec-05 16:24 068 7 gusting 11 6.1
2019-Dec-05 16:19 042 5 gusting 12 6.1
2019-Dec-05 16:14 037 6 gusting 10 6.1
2019-Dec-05 16:09 021 4 gusting 10 6.1
2019-Dec-05 16:04 033 1 gusting 8 6.1
2019-Dec-05 15:59 044 6 gusting 12 6.1
2019-Dec-05 15:54 046 5 gusting 10 5.6
2019-Dec-05 15:49 042 7 gusting 13 5.6
2019-Dec-05 15:44 036 8 gusting 12 5.6
2019-Dec-05 15:39 033 5 gusting 10 5.6
2019-Dec-05 15:34 036 4 gusting 8 5.6
2019-Dec-05 15:29 020 6 gusting 10 5.6
2019-Dec-05 15:24 031 2 gusting 6 5.6
2019-Dec-05 15:19 037 5 gusting 8 5.6
2019-Dec-05 15:14 026 4 gusting 6 5.6
2019-Dec-05 15:09 044 3 gusting 6 5.6
2019-Dec-05 15:04 050 1 gusting 4 5.6
2019-Dec-05 14:59 358 5.6
2019-Dec-05 14:54 033 0 gusting 2 5.6
2019-Dec-05 14:49 054 4 gusting 6 6.1
2019-Dec-05 14:44 081 2 gusting 8 6.1
2019-Dec-05 14:39 036 1 gusting 6 6.1
2019-Dec-05 14:34 012 6 gusting 11 6.1
2019-Dec-05 14:29 012 4 gusting 15 5.6
2019-Dec-05 14:24 005 5 gusting 6 5.6
2019-Dec-05 14:19 015 5 gusting 6 5.6
2019-Dec-05 14:14 012 2 gusting 10 6.1
2019-Dec-05 14:09 065 3 gusting 8 6.1
2019-Dec-05 14:04 058 1 gusting 5 6.1
2019-Dec-05 13:59 045 2 gusting 6 6.1
2019-Dec-05 13:54 038 2 gusting 5 6.1
2019-Dec-05 13:49 033 4 gusting 11 6.1
2019-Dec-05 13:44 027 5 gusting 7 6.1
2019-Dec-05 13:39 022 8 gusting 12 6.1
2019-Dec-05 13:34 007 6 gusting 11 6.1
2019-Dec-05 13:29 002 5 gusting 11 6.1
2019-Dec-05 13:24 341 6.1
2019-Dec-05 13:19 318 1 gusting 5 6.1
2019-Dec-05 13:14 314 2 gusting 6 6.1
2019-Dec-05 13:09 309 5 gusting 10 6.1
2019-Dec-05 13:04 337 4 gusting 6 6.1
2019-Dec-05 12:59 336 6 gusting 8 5.6
2019-Dec-05 12:54 343 5 gusting 6 5.6
2019-Dec-05 12:49 002 4 gusting 5 5.6
2019-Dec-05 12:44 002 4 gusting 6 5.6
2019-Dec-05 12:39 013 5 gusting 7 5.6
2019-Dec-05 12:34 022 2 gusting 6 5.6
2019-Dec-05 12:29 336 1 gusting 5 5.6
2019-Dec-05 12:24 336 1 gusting 4 5.6
2019-Dec-05 12:19 336 0 gusting 2 5.6
2019-Dec-05 12:14 336 0 gusting 4 5.6
2019-Dec-05 12:09 336 4 gusting 6 5.6
2019-Dec-05 12:04 353 4 gusting 6 6.1
2019-Dec-05 11:59 353 3 gusting 6 6.1
2019-Dec-05 11:54 349 2 gusting 5 6.1
2019-Dec-05 11:49 356 3 gusting 5 6.1
2019-Dec-05 11:44 6.1
2019-Dec-05 11:39 355 5 gusting 6 6.1
2019-Dec-05 11:34 353 5 gusting 8 6.1
2019-Dec-05 11:29 354 7 gusting 10 6.1
2019-Dec-05 11:24 350 5 gusting 6 6.1
2019-Dec-05 11:19 351 5 gusting 6 6.1
2019-Dec-05 11:14 339 3 gusting 6 6.7
2019-Dec-05 11:09 355 4 gusting 6 6.7
2019-Dec-05 11:04 352 4 gusting 6 6.7
2019-Dec-05 10:59 345 6 gusting 6 6.7
2019-Dec-05 10:54 6.7
2019-Dec-05 10:49 343 5 gusting 6 6.7
2019-Dec-05 10:44 339 4 gusting 6 6.7
2019-Dec-05 10:39 337 4 gusting 8 6.7
2019-Dec-05 10:34 335 5 gusting 6 6.7
2019-Dec-05 10:29 348 4 gusting 6 7.2
2019-Dec-05 10:24 337 4 gusting 8 7.2
2019-Dec-05 10:19 349 5 gusting 10 7.2
2019-Dec-05 10:14 353 4 gusting 6 7.2
2019-Dec-05 10:09 353 4 gusting 6 7.2
2019-Dec-05 10:04 352 5 gusting 6 7.2
2019-Dec-05 09:59 349 5 gusting 10 7.2
2019-Dec-05 09:54 350 5 gusting 6 7.2
2019-Dec-05 09:49 358 4 gusting 6 7.2
2019-Dec-05 09:44 345 6 gusting 11 7.2
2019-Dec-05 09:39 341 7 gusting 10 7.2
2019-Dec-05 09:34 336 4 gusting 8 7.2
2019-Dec-05 09:29 330 6 gusting 10 7.2
2019-Dec-05 09:24 332 7 gusting 11 7.2
2019-Dec-05 09:19 333 7 gusting 11 7.2
2019-Dec-05 09:14 331 6 gusting 10 7.2
2019-Dec-05 09:09 335 8 gusting 12 7.2
2019-Dec-05 09:04 339 5 gusting 11 7.2
2019-Dec-05 08:59 345 6 gusting 11 7.2
2019-Dec-05 08:54 334 6 gusting 11 7.2
2019-Dec-05 08:49 341 6 gusting 10 7.2
2019-Dec-05 08:44 338 8 gusting 13 7.2
2019-Dec-05 08:39 340 7 gusting 12 7.8
2019-Dec-05 08:34 337 9 gusting 13 7.8
2019-Dec-05 08:29 357 7 gusting 11 7.8
2019-Dec-05 08:24 350 7 gusting 13 7.8
2019-Dec-05 08:19 340 6 gusting 11 7.8
2019-Dec-05 08:14 342 8 gusting 13 7.8
2019-Dec-05 08:09 344 7 gusting 15 7.8
2019-Dec-05 08:04 333 12 gusting 15 7.8
2019-Dec-05 07:59 331 10 gusting 15 7.8
2019-Dec-05 07:54 345 8 gusting 13 7.8
2019-Dec-05 07:49 333 12 gusting 17 7.8
2019-Dec-05 07:44 331 12 gusting 17 7.8
2019-Dec-05 07:39 334 13 gusting 17 7.8
2019-Dec-05 07:34 338 11 gusting 18 7.8
2019-Dec-05 07:29 333 15 gusting 19 7.8
2019-Dec-05 07:24 337 11 gusting 15 7.8
2019-Dec-05 07:19 337 7 gusting 15 7.8
2019-Dec-05 07:14 337 15 gusting 19 7.8
2019-Dec-05 07:09 332 15 gusting 19 7.8
2019-Dec-05 07:04 334 15 gusting 19 7.8
2019-Dec-05 06:59 332 16 gusting 19 7.8
2019-Dec-05 06:54 334 10 gusting 19 7.8
2019-Dec-05 06:49 339 13 gusting 18 7.8
2019-Dec-05 06:44 334 14 gusting 18 7.8
2019-Dec-05 06:39 332 14 gusting 17 7.8
2019-Dec-05 06:34 331 13 gusting 17 7.8
2019-Dec-05 06:29 342 7 gusting 13 7.8
2019-Dec-05 06:24 345 8 gusting 13 7.8
2019-Dec-05 06:19 342 9 gusting 13 7.8
2019-Dec-05 06:14 342 8 gusting 13 7.8
2019-Dec-05 06:09 334 9 gusting 13 7.8
2019-Dec-05 06:04 333 8 gusting 13 7.8
2019-Dec-05 05:59 343 7 gusting 11 7.8
2019-Dec-05 05:54 333 7 gusting 12 7.8
2019-Dec-05 05:49 333 8 gusting 12 7.8
2019-Dec-05 05:44 345 4 gusting 10 7.8
2019-Dec-05 05:39 344 4 gusting 6 7.8
2019-Dec-05 05:34 349 4 gusting 6 7.8
2019-Dec-05 05:29 351 2 gusting 6 7.2
2019-Dec-05 05:24 346 4 gusting 6 7.2
2019-Dec-05 05:19 357 4 gusting 6 7.2
2019-Dec-05 05:14 340 3 gusting 6 7.2
2019-Dec-05 05:09 340 1 gusting 5 7.2
2019-Dec-05 05:04 340 0 gusting 4 7.2
2019-Dec-05 04:59 340 1 gusting 4 7.2
2019-Dec-05 04:54 340 2 gusting 4 7.2
2019-Dec-05 04:49 340 2 gusting 5 7.2
2019-Dec-05 04:44 340 0 gusting 4 7.2
2019-Dec-05 04:39 339 2 gusting 5 7.2
2019-Dec-05 04:34 338 2 gusting 6 7.2
2019-Dec-05 04:29 336 1 gusting 5 7.2
2019-Dec-05 04:24 336 2 gusting 5 7.2
2019-Dec-05 04:19 335 2 gusting 6 7.2
2019-Dec-05 04:14 335 5 gusting 7 7.2
2019-Dec-05 04:09 330 4 gusting 6 7.2
2019-Dec-05 04:04 010 2 gusting 4 7.2
2019-Dec-05 03:59 010 1 gusting 2 7.2
2019-Dec-05 03:54 010 0 gusting 1 7.2
2019-Dec-05 03:49 010 7.2
2019-Dec-05 03:44 010 7.2
2019-Dec-05 03:39 010 7.2
2019-Dec-05 03:34 010 7.2
2019-Dec-05 03:29 010 7.2
2019-Dec-05 03:24 010 7.2
2019-Dec-05 03:19 010 7.2
2019-Dec-05 03:14 010 7.2
2019-Dec-05 03:09 010 2 gusting 5 7.2
2019-Dec-05 03:04 016 0 gusting 5 7.2
2019-Dec-05 02:59 015 4 gusting 6 7.8
2019-Dec-05 02:54 345 4 gusting 6 7.8
2019-Dec-05 02:49 344 5 gusting 6 7.8
2019-Dec-05 02:44 334 4 gusting 6 7.8
2019-Dec-05 02:39 355 4 gusting 10 7.8
2019-Dec-05 02:34 331 6 gusting 11 7.8
2019-Dec-05 02:29 334 7 gusting 13 7.8
2019-Dec-05 02:24 332 6 gusting 13 7.8
2019-Dec-05 02:19 331 12 gusting 13 7.8
2019-Dec-05 02:14 339 11 gusting 13 7.8
2019-Dec-05 02:09 330 10 gusting 13 7.8
2019-Dec-05 02:04 328 10 gusting 14 7.8
2019-Dec-05 01:59 334 10 gusting 14 7.8
2019-Dec-05 01:54 323 9 gusting 13 7.8
2019-Dec-05 01:49 317 9 gusting 13 7.8
2019-Dec-05 01:44 329 9 gusting 13 7.8
2019-Dec-05 01:39 322 10 gusting 13 7.8
2019-Dec-05 01:34 329 10 gusting 13 7.8
2019-Dec-05 01:29 319 11 gusting 13 7.8
2019-Dec-05 01:24 333 12 gusting 15 7.8
2019-Dec-05 01:19 328 10 gusting 14 7.8
2019-Dec-05 01:14 329 10 gusting 13 7.8
2019-Dec-05 01:09 333 11 gusting 15 7.8
2019-Dec-05 01:04 332 10 gusting 13 7.8
2019-Dec-05 00:59 335 10 gusting 13 7.8
2019-Dec-05 00:54 332 10 gusting 13 7.8
2019-Dec-05 00:49 335 7 gusting 10 7.8
2019-Dec-05 00:44 340 5 gusting 12 7.8
2019-Dec-05 00:39 339 12 gusting 13 7.8
2019-Dec-05 00:34 333 13 gusting 14 7.8
2019-Dec-05 00:29 332 11 gusting 14 7.8
2019-Dec-05 00:24 336 12 gusting 15 7.8
2019-Dec-05 00:19 332 12 gusting 15 7.8
2019-Dec-05 00:14 336 13 gusting 18 7.8
2019-Dec-05 00:09 337 15 gusting 18 7.8
2019-Dec-05 00:04 333 14 gusting 18 7.8
2019-Dec-04 23:59 340 13 gusting 15 7.8
2019-Dec-04 23:54 333 12 gusting 14 7.8
2019-Dec-04 23:49 335 11 gusting 14 7.8
2019-Dec-04 23:44 327 10 gusting 13 7.8
2019-Dec-04 23:39 333 12 gusting 15 7.8
2019-Dec-04 23:34 328 8 gusting 14 7.8
2019-Dec-04 23:29 327 10 gusting 14 7.8
2019-Dec-04 23:24 332 12 gusting 15 7.8
2019-Dec-04 23:19 334 8 gusting 11 7.8
2019-Dec-04 23:14 327 6 gusting 11 7.8
2019-Dec-04 23:09 321 9 gusting 12 7.8
2019-Dec-04 23:04 329 10 gusting 13 7.8
2019-Dec-04 22:59 332 8 gusting 13 7.8
2019-Dec-04 22:54 336 12 gusting 14 7.8
2019-Dec-04 22:49 331 14 gusting 17 7.8
2019-Dec-04 22:44 332 11 gusting 17 7.8
2019-Dec-04 22:39 333 10 gusting 18 7.8
2019-Dec-04 22:34 327 11 gusting 13 7.8
2019-Dec-04 22:29 334 13 gusting 14 7.8
2019-Dec-04 22:24 323 11 gusting 14 7.8
2019-Dec-04 22:19 331 12 gusting 17 7.8
2019-Dec-04 22:14 331 9 gusting 13 7.8
2019-Dec-04 22:09 331 9 gusting 13 7.8
2019-Dec-04 22:04 334 10 gusting 17 7.8
2019-Dec-04 21:59 334 14 gusting 19 7.8
2019-Dec-04 21:54 334 13 gusting 17 7.8
2019-Dec-04 21:49 333 13 gusting 15 7.8
2019-Dec-04 21:44 327 12 gusting 17 7.8
2019-Dec-04 21:39 329 14 gusting 17 8.3
2019-Dec-04 21:34 332 13 gusting 18 8.3
2019-Dec-04 21:29 332 11 gusting 15 8.3
2019-Dec-04 21:24 318 11 gusting 13 8.3
2019-Dec-04 21:19 323 8 gusting 12 8.3
2019-Dec-04 21:14 321 7 gusting 11 8.3
2019-Dec-04 21:09 326 6 gusting 11 8.3
2019-Dec-04 21:04 321 8 gusting 13 8.3
2019-Dec-04 20:59 332 7 gusting 13 8.3
2019-Dec-04 20:54 324 9 gusting 13 8.3
2019-Dec-04 20:49 330 10 gusting 13 8.3
2019-Dec-04 20:44 319 5 gusting 8 8.3
2019-Dec-04 20:39 311 6 gusting 12 8.3
2019-Dec-04 20:34 323 6 gusting 11 8.3
2019-Dec-04 20:29 309 7 gusting 13 8.3
2019-Dec-04 20:24 327 9 gusting 12 8.3
2019-Dec-04 20:19 316 6 gusting 11 8.3
2019-Dec-04 20:14 326 6 gusting 11 8.3
2019-Dec-04 20:09 330 8 gusting 13 8.3
2019-Dec-04 20:04 329 8 gusting 13 8.3
2019-Dec-04 19:59 331 7 gusting 12 8.3
2019-Dec-04 19:54 311 6 gusting 11 8.3
2019-Dec-04 19:49 313 7 gusting 12 8.3
2019-Dec-04 19:44 324 8 gusting 12 8.3
2019-Dec-04 19:39 321 7 gusting 12 8.3
2019-Dec-04 19:34 309 8 gusting 13 8.3
2019-Dec-04 19:29 328 10 gusting 15 8.3
2019-Dec-04 19:24 333 11 gusting 15 8.3
2019-Dec-04 19:19 332 13 gusting 18 8.3
2019-Dec-04 19:14 330 14 gusting 18 8.3
2019-Dec-04 19:09 333 14 gusting 19 8.3
2019-Dec-04 19:04 330 10 gusting 15 8.3
2019-Dec-04 18:59 330 10 gusting 14 8.3
2019-Dec-04 18:54 329 10 gusting 15 8.3
2019-Dec-04 18:49 334 13 gusting 15 8.3
2019-Dec-04 18:44 328 9 gusting 15 8.3
2019-Dec-04 18:39 331 12 gusting 14 8.3
2019-Dec-04 18:34 323 9 gusting 14 8.3
2019-Dec-04 18:29 329 12 gusting 15 8.3
2019-Dec-04 18:24 338 11 gusting 17 8.3
2019-Dec-04 18:19 336 10 gusting 14 8.3
2019-Dec-04 18:14 327 10 gusting 15 8.3
2019-Dec-04 18:09 321 9 gusting 13 8.3
2019-Dec-04 18:04 326 8 gusting 13 8.3
2019-Dec-04 17:59 319 10 gusting 13 8.3
2019-Dec-04 17:54 320 9 gusting 13 8.3
2019-Dec-04 17:49 320 8 gusting 13 8.3
2019-Dec-04 17:44 319 9 gusting 13 8.3
2019-Dec-04 17:39 313 7 gusting 12 8.9
2019-Dec-04 17:34 311 9 gusting 13 8.9
2019-Dec-04 17:29 312 10 gusting 14 8.9
2019-Dec-04 17:24 289 13 gusting 14 8.9
2019-Dec-04 17:19 288 12 gusting 15 9.4
2019-Dec-04 17:14 298 11 gusting 15 9.4
2019-Dec-04 17:09 216 7 gusting 12 9.4
2019-Dec-04 17:04 218 9 gusting 12 9.4
2019-Dec-04 16:59 215 9 gusting 12 9.4
2019-Dec-04 16:54 202 8 gusting 13 9.4
2019-Dec-04 16:49 200 7 gusting 14 9.4
2019-Dec-04 16:44 197 6 gusting 13 9.4
2019-Dec-04 16:39 192 8 gusting 13 9.4
2019-Dec-04 16:34 194 10 gusting 13 9.4
2019-Dec-04 16:29 189 10 gusting 15 9.4
2019-Dec-04 16:24 180 7 gusting 12 9.4
2019-Dec-04 16:19 187 10 gusting 13 9.4
2019-Dec-04 16:14 186 10 gusting 13 9.4
2019-Dec-04 16:09 189 8 gusting 13 9.4
2019-Dec-04 16:04 191 8 gusting 12 9.4
2019-Dec-04 15:59 186 10 gusting 13 9.4
2019-Dec-04 15:54 184 8 gusting 12 9.4
2019-Dec-04 15:49 180 7 gusting 12 9.4
2019-Dec-04 15:44 168 6 gusting 11 9.4
2019-Dec-04 15:39 176 6 gusting 11 9.4
2019-Dec-04 15:34 189 6 gusting 11 9.4
2019-Dec-04 15:29 178 7 gusting 13 9.4
2019-Dec-04 15:24 178 9 gusting 13 9.4
2019-Dec-04 15:19 183 7 gusting 13 9.4
2019-Dec-04 15:14 177 6 gusting 12 9.4
2019-Dec-04 15:09 181 6 gusting 12 9.4
2019-Dec-04 15:04 172 7 gusting 12 9.4
2019-Dec-04 14:59 173 6 gusting 14 9.4
2019-Dec-04 14:54 180 7 gusting 14 9.4
2019-Dec-04 14:49 175 7 gusting 12 9.4
2019-Dec-04 14:44 162 5 gusting 10 9.4
2019-Dec-04 14:39 175 5 gusting 10 9.4
2019-Dec-04 14:34 179 6 gusting 11 9.4
2019-Dec-04 14:29 181 7 gusting 12 9.4
2019-Dec-04 14:24 183 5 gusting 8 9.4
2019-Dec-04 14:19 166 5 gusting 7 9.4
2019-Dec-04 14:14 169 4 gusting 6 9.4
2019-Dec-04 14:09 159 2 gusting 5 9.4
2019-Dec-04 14:04 175 5 gusting 11 9.4
2019-Dec-04 13:59 179 6 gusting 10 9.4
2019-Dec-04 13:54 173 8 gusting 12 9.4
2019-Dec-04 13:49 165 6 gusting 11 9.4
2019-Dec-04 13:44 166 5 gusting 8 10.0
2019-Dec-04 13:39 188 6 gusting 13 10.0
2019-Dec-04 13:34 174 6 gusting 13 10.0
2019-Dec-04 13:29 167 8 gusting 12 10.0
2019-Dec-04 13:24 167 6 gusting 15 10.0
2019-Dec-04 13:19 163 10 gusting 14 10.0
2019-Dec-04 13:14 179 6 gusting 11 10.0
2019-Dec-04 13:09 181 8 gusting 13 10.0
2019-Dec-04 13:04 173 6 gusting 13 10.0
2019-Dec-04 12:59 175 10 gusting 13 10.0
2019-Dec-04 12:54 186 9 gusting 13 10.6
2019-Dec-04 12:49 188 10 gusting 13 10.6
2019-Dec-04 12:44 191 11 gusting 17 10.6
2019-Dec-04 12:39 200 11 gusting 15 10.6
2019-Dec-04 12:34 197 10 gusting 13 10.6
2019-Dec-04 12:29 191 6 gusting 11 10.6
2019-Dec-04 12:24 189 7 gusting 13 11.1
2019-Dec-04 12:19 205 6 gusting 12 11.1
2019-Dec-04 12:14 189 8 gusting 13 11.1
2019-Dec-04 12:09 181 10 gusting 17 11.1
2019-Dec-04 12:04 192 14 gusting 19 11.1
2019-Dec-04 11:59 183 14 gusting 20 11.1
2019-Dec-04 11:54 176 13 gusting 25 11.1
2019-Dec-04 11:49 178 11 gusting 18 11.1
2019-Dec-04 11:44 179 14 gusting 24 11.1
2019-Dec-04 11:39 171 12 gusting 19 11.1
2019-Dec-04 11:34 175 11 gusting 18 10.6
2019-Dec-04 11:29 176 13 gusting 19 10.6
2019-Dec-04 11:24 175 11 gusting 15 10.6
2019-Dec-04 11:19 174 6 gusting 14 10.6
2019-Dec-04 11:14 185 8 gusting 14 10.6
2019-Dec-04 11:09 182 11 gusting 15 10.6
2019-Dec-04 11:04 186 9 gusting 15 10.6
2019-Dec-04 10:59 191 9 gusting 13 10.6
2019-Dec-04 10:54 178 7 gusting 17 10.6
2019-Dec-04 10:49 175 7 gusting 13 10.6
2019-Dec-04 10:44 181 7 gusting 13 10.6
2019-Dec-04 10:39 181 7 gusting 13 10.6
2019-Dec-04 10:34 179 6 gusting 11 10.6
2019-Dec-04 10:29 183 10 gusting 14 10.6
2019-Dec-04 10:24 180 6 gusting 12 10.6
2019-Dec-04 10:19 182 6 gusting 13 10.6
2019-Dec-04 10:14 180 7 gusting 12 10.6
2019-Dec-04 10:09 167 6 gusting 8 10.6
2019-Dec-04 10:04 184 5 gusting 8 10.6
2019-Dec-04 09:59 176 6 gusting 10 10.6
2019-Dec-04 09:54 171 5 gusting 8 10.6
2019-Dec-04 09:49 186 5 gusting 8 10.6
2019-Dec-04 09:44 192 5 gusting 10 10.6
2019-Dec-04 09:39 170 4 gusting 8 10.6
2019-Dec-04 09:34 171 6 gusting 8 10.6
2019-Dec-04 09:29 175 6 gusting 10 10.6
2019-Dec-04 09:24 169 5 gusting 10 10.6
2019-Dec-04 09:19 164 4 gusting 6 10.6
2019-Dec-04 09:14 154 5 gusting 6 10.6
2019-Dec-04 09:09 145 4 gusting 11 10.6
2019-Dec-04 09:04 164 6 gusting 10 10.6
2019-Dec-04 08:59 175 7 gusting 13 10.6
2019-Dec-04 08:54 155 6 gusting 10 10.6
2019-Dec-04 08:49 180 6 gusting 12 10.6
2019-Dec-04 08:44 196 9 gusting 13 10.6
2019-Dec-04 08:39 195 10 gusting 13 10.6
2019-Dec-04 08:34 207 11 gusting 13 11.1
2019-Dec-04 08:29 211 11 gusting 13 11.1
2019-Dec-04 08:24 211 10 gusting 12 11.1
2019-Dec-04 08:19 206 10 gusting 13 11.1
2019-Dec-04 08:14 212 10 gusting 12 11.1
2019-Dec-04 08:09 207 11 gusting 13 11.1
2019-Dec-04 08:04 206 7 gusting 10 11.1
2019-Dec-04 07:59 205 7 gusting 11 11.1
2019-Dec-04 07:54 193 9 gusting 13 11.1
2019-Dec-04 07:49 203 7 gusting 13 11.1
2019-Dec-04 07:44 194 7 gusting 12 11.1
2019-Dec-04 07:39 200 7 gusting 13 11.1
2019-Dec-04 07:34 191 11 gusting 13 11.1
2019-Dec-04 07:29 185 12 gusting 15 11.1
2019-Dec-04 07:24 204 12 gusting 17 11.1
2019-Dec-04 07:19 203 11 gusting 17 11.1
2019-Dec-04 07:14 193 13 gusting 18 11.1
2019-Dec-04 07:09 184 12 gusting 18 11.1
2019-Dec-04 07:04 181 13 gusting 20 11.1
2019-Dec-04 06:59 180 13 gusting 19 11.1
2019-Dec-04 06:54 185 11 gusting 17 11.1
2019-Dec-04 06:49 184 12 gusting 14 11.1
2019-Dec-04 06:44 183 11 gusting 15 11.1
2019-Dec-04 06:39 189 9 gusting 15 11.1
2019-Dec-04 06:34 184 8 gusting 14 11.1
2019-Dec-04 06:29 176 11 gusting 14 11.1
2019-Dec-04 06:24 183 10 gusting 17 11.1
2019-Dec-04 06:19 173 11 gusting 14 11.1
2019-Dec-04 06:14 183 9 gusting 15 11.1
2019-Dec-04 06:09 184 10 gusting 18 11.1
2019-Dec-04 06:04 177 12 gusting 15 11.1
2019-Dec-04 05:59 183 10 gusting 15 11.1
2019-Dec-04 05:54 186 11 gusting 15 11.1
2019-Dec-04 05:49 181 12 gusting 17 11.1
2019-Dec-04 05:44 188 13 gusting 17 11.1
2019-Dec-04 05:39 187 11 gusting 17 11.1
2019-Dec-04 05:34 186 12 gusting 18 11.1
2019-Dec-04 05:29 189 12 gusting 17 11.1
2019-Dec-04 05:24 186 11 gusting 18 11.1
2019-Dec-04 05:19 189 12 gusting 19 11.1
2019-Dec-04 05:14 185 13 gusting 18 11.1
2019-Dec-04 05:09 182 12 gusting 18 11.1
2019-Dec-04 05:04 183 13 gusting 19 11.1
2019-Dec-04 04:59 181 11 gusting 20 11.1
2019-Dec-04 04:54 167 9 gusting 14 11.1
2019-Dec-04 04:49 193 11 gusting 17 11.1
2019-Dec-04 04:44 187 8 gusting 14 11.1
2019-Dec-04 04:39 180 9 gusting 13 11.1
2019-Dec-04 04:34 179 10 gusting 14 11.1
2019-Dec-04 04:29 168 9 gusting 14 11.1
2019-Dec-04 04:24 181 10 gusting 14 11.1
2019-Dec-04 04:19 189 9 gusting 13 11.1
2019-Dec-04 04:14 179 9 gusting 17 11.1
2019-Dec-04 04:09 185 12 gusting 18 11.1
2019-Dec-04 04:04 188 13 gusting 19 11.1
2019-Dec-04 03:59 190 13 gusting 18 11.1
2019-Dec-04 03:54 193 13 gusting 19 11.1
2019-Dec-04 03:49 186 13 gusting 18 11.1
2019-Dec-04 03:44 192 13 gusting 17 11.1
2019-Dec-04 03:39 189 13 gusting 18 11.1
2019-Dec-04 03:34 189 12 gusting 18 11.1
2019-Dec-04 03:29 194 11 gusting 15 11.1
2019-Dec-04 03:24 188 11 gusting 19 11.1
2019-Dec-04 03:19 189 11 gusting 17 11.1
2019-Dec-04 03:14 178 11 gusting 18 11.1
2019-Dec-04 03:09 185 11 gusting 17 11.1
2019-Dec-04 03:04 192 8 gusting 13 11.1
2019-Dec-04 02:59 187 11 gusting 14 11.1
2019-Dec-04 02:54 183 8 gusting 15 10.6
2019-Dec-04 02:49 182 10 gusting 15 10.6
2019-Dec-04 02:44 179 11 gusting 15 10.6
2019-Dec-04 02:39 186 9 gusting 13 10.6
2019-Dec-04 02:34 187 7 gusting 13 10.6
2019-Dec-04 02:29 176 7 gusting 12 10.6
2019-Dec-04 02:24 186 8 gusting 13 10.6
2019-Dec-04 02:19 185 8 gusting 13 10.6
2019-Dec-04 02:14 184 6 gusting 11 10.0
2019-Dec-04 02:09 188 6 gusting 12 10.0
2019-Dec-04 02:04 192 7 gusting 11 10.0
2019-Dec-04 01:59 195 7 gusting 13 10.0
2019-Dec-04 01:54 187 6 gusting 10 10.0
2019-Dec-04 01:49 187 6 gusting 10 10.0
2019-Dec-04 01:44 186 6 gusting 10 10.0
2019-Dec-04 01:39 198 7 gusting 11 10.0
2019-Dec-04 01:34 193 8 gusting 13 10.0
2019-Dec-04 01:29 194 9 gusting 13 10.0
2019-Dec-04 01:24 190 10 gusting 13 10.0
2019-Dec-04 01:19 182 8 gusting 13 10.0
2019-Dec-04 01:14 184 8 gusting 13 10.0
2019-Dec-04 01:09 184 8 gusting 13 10.0
2019-Dec-04 01:04 159 6 gusting 10 10.0
2019-Dec-04 00:59 152 6 gusting 10 10.0
2019-Dec-04 00:54 159 5 gusting 10 10.0
2019-Dec-04 00:49 166 6 gusting 13 10.0
2019-Dec-04 00:44 164 6 gusting 12 10.0
2019-Dec-04 00:39 167 8 gusting 13 10.0
2019-Dec-04 00:34 149 10 gusting 15 10.0
2019-Dec-04 00:29 168 12 gusting 14 10.0
2019-Dec-04 00:24 164 10 gusting 13 10.0
2019-Dec-04 00:19 168 9 gusting 13 10.0
2019-Dec-04 00:14 159 6 gusting 10 10.0
2019-Dec-04 00:09 159 6 gusting 10 10.0
2019-Dec-04 00:04 175 4 gusting 10 10.0
2019-Dec-03 23:59 175 6 gusting 12 10.0
2019-Dec-03 23:54 187 8 gusting 13 10.0
2019-Dec-03 23:49 195 9 gusting 13 10.0
2019-Dec-03 23:44 195 10 gusting 13 10.0
2019-Dec-03 23:39 190 8 gusting 13 10.0
2019-Dec-03 23:34 183 8 gusting 13 10.0
2019-Dec-03 23:29 178 5 gusting 10 10.0
2019-Dec-03 23:24 186 6 gusting 11 10.0
2019-Dec-03 23:19 166 5 gusting 11 10.0
2019-Dec-03 23:14 176 4 gusting 8 10.0
2019-Dec-03 23:09 178 6 gusting 10 10.0
2019-Dec-03 23:04 184 6 gusting 11 10.0
2019-Dec-03 22:59 188 6 gusting 11 10.0
2019-Dec-03 22:54 198 7 gusting 12 10.0
2019-Dec-03 22:49 200 8 gusting 13 10.0
2019-Dec-03 22:44 188 8 gusting 12 10.0
2019-Dec-03 22:39 193 8 gusting 13 10.0
2019-Dec-03 22:34 184 8 gusting 13 10.0
2019-Dec-03 22:29 193 7 gusting 11 10.0
2019-Dec-03 22:24 198 7 gusting 12 10.0
2019-Dec-03 22:19 188 7 gusting 14 10.0
2019-Dec-03 22:14 187 10 gusting 13 10.0
2019-Dec-03 22:09 190 9 gusting 14 10.0
2019-Dec-03 22:04 194 9 gusting 13 10.0
2019-Dec-03 21:59 190 10 gusting 13 10.0
2019-Dec-03 21:54 202 10 gusting 14 10.0
2019-Dec-03 21:49 192 12 gusting 14 10.0
2019-Dec-03 21:44 193 12 gusting 15 10.0
2019-Dec-03 21:39 191 13 gusting 17 10.0
2019-Dec-03 21:34 193 12 gusting 17 10.0
2019-Dec-03 21:29 197 11 gusting 13 10.0
2019-Dec-03 21:24 196 13 gusting 18 10.0
2019-Dec-03 21:19 189 8 gusting 13 10.0
2019-Dec-03 21:14 183 10 gusting 15 10.0
2019-Dec-03 21:09 194 10 gusting 14 10.0
2019-Dec-03 21:04 189 12 gusting 14 10.0